sensor_id;sensor_type;location;lat;lon;timestamp;pressure;altitude;pressure_sealevel;temperature;humidity
74975;BME280;68459;50.836;19.138;2023-06-22T00:01:27;98725.56;;;21.63;71.72
74975;BME280;68459;50.836;19.138;2023-06-22T00:04:31;98727.47;;;21.63;71.82
74975;BME280;68459;50.836;19.138;2023-06-22T00:07:35;98723.91;;;21.62;71.79
74975;BME280;68459;50.836;19.138;2023-06-22T00:10:41;98723.69;;;21.59;71.99
74975;BME280;68459;50.836;19.138;2023-06-22T00:13:45;98735.56;;;21.54;72.13
74975;BME280;68459;50.836;19.138;2023-06-22T00:16:50;98733.94;;;21.53;72.39
74975;BME280;68459;50.836;19.138;2023-06-22T00:19:59;98745.72;;;21.54;72.46
74975;BME280;68459;50.836;19.138;2023-06-22T00:23:04;98740.75;;;21.56;72.65
74975;BME280;68459;50.836;19.138;2023-06-22T00:26:11;98738.22;;;21.59;71.98
74975;BME280;68459;50.836;19.138;2023-06-22T00:29:16;98735.72;;;21.63;72.57
74975;BME280;68459;50.836;19.138;2023-06-22T00:32:20;98744.47;;;21.65;72.75
74975;BME280;68459;50.836;19.138;2023-06-22T00:35:24;98747.75;;;21.67;72.86
74975;BME280;68459;50.836;19.138;2023-06-22T00:38:30;98750.50;;;21.67;72.98
74975;BME280;68459;50.836;19.138;2023-06-22T00:41:35;98757.09;;;21.66;72.77
74975;BME280;68459;50.836;19.138;2023-06-22T00:44:39;98755.22;;;21.61;72.84
74975;BME280;68459;50.836;19.138;2023-06-22T00:47:43;98742.91;;;21.59;72.95
74975;BME280;68459;50.836;19.138;2023-06-22T00:50:47;98748.69;;;21.57;72.90
74975;BME280;68459;50.836;19.138;2023-06-22T00:53:52;98740.53;;;21.52;73.34
74975;BME280;68459;50.836;19.138;2023-06-22T00:56:58;98735.59;;;21.49;73.40
74975;BME280;68459;50.836;19.138;2023-06-22T01:00:04;98729.88;;;21.46;73.38
74975;BME280;68459;50.836;19.138;2023-06-22T01:03:22;98727.75;;;21.43;73.37
74975;BME280;68459;50.836;19.138;2023-06-22T01:06:29;98719.28;;;21.39;73.82
74975;BME280;68459;50.836;19.138;2023-06-22T01:09:46;98719.59;;;21.32;74.40
74975;BME280;68459;50.836;19.138;2023-06-22T01:13:01;98729.56;;;21.28;73.93
74975;BME280;68459;50.836;19.138;2023-06-22T01:16:10;98732.59;;;21.27;73.33
74975;BME280;68459;50.836;19.138;2023-06-22T01:19:35;98737.84;;;21.23;74.00
74975;BME280;68459;50.836;19.138;2023-06-22T01:22:55;98725.78;;;21.19;74.63
74975;BME280;68459;50.836;19.138;2023-06-22T01:26:17;98727.47;;;21.15;73.95
74975;BME280;68459;50.836;19.138;2023-06-22T01:29:24;98730.78;;;21.12;74.11
74975;BME280;68459;50.836;19.138;2023-06-22T01:32:31;98730.84;;;21.07;74.10
74975;BME280;68459;50.836;19.138;2023-06-22T01:35:37;98742.69;;;21.03;74.08
74975;BME280;68459;50.836;19.138;2023-06-22T01:38:42;98743.03;;;20.96;74.23
74975;BME280;68459;50.836;19.138;2023-06-22T01:41:47;98749.69;;;20.90;74.43
74975;BME280;68459;50.836;19.138;2023-06-22T01:44:53;98756.28;;;20.84;74.33
74975;BME280;68459;50.836;19.138;2023-06-22T01:47:57;98759.06;;;20.79;74.55
74975;BME280;68459;50.836;19.138;2023-06-22T01:51:02;98761.34;;;20.72;75.10
74975;BME280;68459;50.836;19.138;2023-06-22T01:54:06;98768.50;;;20.68;74.71
74975;BME280;68459;50.836;19.138;2023-06-22T01:57:11;98769.38;;;20.63;74.60
74975;BME280;68459;50.836;19.138;2023-06-22T02:00:20;98775.16;;;20.56;74.70
74975;BME280;68459;50.836;19.138;2023-06-22T02:03:29;98780.66;;;20.51;74.80
74975;BME280;68459;50.836;19.138;2023-06-22T02:06:37;98780.72;;;20.46;74.73
74975;BME280;68459;50.836;19.138;2023-06-22T02:09:45;98780.75;;;20.41;74.85
74975;BME280;68459;50.836;19.138;2023-06-22T02:12:53;98782.72;;;20.36;74.88
74975;BME280;68459;50.836;19.138;2023-06-22T02:16:00;98783.00;;;20.29;75.03
74975;BME280;68459;50.836;19.138;2023-06-22T02:19:05;98783.31;;;20.22;75.11
74975;BME280;68459;50.836;19.138;2023-06-22T02:22:09;98781.97;;;20.20;74.78
74975;BME280;68459;50.836;19.138;2023-06-22T02:25:14;98784.44;;;20.16;75.14
74975;BME280;68459;50.836;19.138;2023-06-22T02:28:20;98787.47;;;20.15;75.59
74975;BME280;68459;50.836;19.138;2023-06-22T02:31:25;98793.50;;;20.12;75.15
74975;BME280;68459;50.836;19.138;2023-06-22T02:34:33;98804.22;;;20.08;74.66
74975;BME280;68459;50.836;19.138;2023-06-22T02:37:39;98815.44;;;20.07;75.47
74975;BME280;68459;50.836;19.138;2023-06-22T02:40:44;98805.59;;;20.06;75.24
74975;BME280;68459;50.836;19.138;2023-06-22T02:43:48;98817.66;;;20.05;75.10
74975;BME280;68459;50.836;19.138;2023-06-22T02:46:56;98825.31;;;20.03;75.47
74975;BME280;68459;50.836;19.138;2023-06-22T02:50:00;98810.81;;;20.02;75.31
74975;BME280;68459;50.836;19.138;2023-06-22T02:53:08;98814.63;;;20.01;75.42
74975;BME280;68459;50.836;19.138;2023-06-22T02:56:14;98819.84;;;19.98;75.30
74975;BME280;68459;50.836;19.138;2023-06-22T02:59:20;98826.72;;;19.95;75.37
74975;BME280;68459;50.836;19.138;2023-06-22T03:02:34;98821.53;;;19.93;75.43
74975;BME280;68459;50.836;19.138;2023-06-22T03:05:38;98824.28;;;19.93;75.43
74975;BME280;68459;50.836;19.138;2023-06-22T03:08:42;98820.44;;;19.95;75.56
74975;BME280;68459;50.836;19.138;2023-06-22T03:11:47;98846.72;;;19.96;75.25
74975;BME280;68459;50.836;19.138;2023-06-22T03:14:51;98847.53;;;19.96;75.38
74975;BME280;68459;50.836;19.138;2023-06-22T03:17:56;98842.06;;;19.96;75.49
74975;BME280;68459;50.836;19.138;2023-06-22T03:21:00;98856.56;;;19.97;75.16
74975;BME280;68459;50.836;19.138;2023-06-22T03:24:06;98855.44;;;20.03;75.14
74975;BME280;68459;50.836;19.138;2023-06-22T03:27:10;98862.28;;;20.05;74.97
74975;BME280;68459;50.836;19.138;2023-06-22T03:30:15;98866.38;;;20.08;74.89
74975;BME280;68459;50.836;19.138;2023-06-22T03:33:21;98868.53;;;20.11;75.15
74975;BME280;68459;50.836;19.138;2023-06-22T03:36:25;98865.28;;;20.09;75.18
74975;BME280;68459;50.836;19.138;2023-06-22T03:39:29;98872.41;;;20.10;75.04
74975;BME280;68459;50.836;19.138;2023-06-22T03:42:33;98871.00;;;20.12;75.13
74975;BME280;68459;50.836;19.138;2023-06-22T03:45:37;98866.06;;;20.14;75.13
74975;BME280;68459;50.836;19.138;2023-06-22T03:48:43;98870.72;;;20.19;75.49
74975;BME280;68459;50.836;19.138;2023-06-22T03:51:47;98877.28;;;20.23;75.40
74975;BME280;68459;50.836;19.138;2023-06-22T03:54:51;98885.19;;;20.29;75.01
74975;BME280;68459;50.836;19.138;2023-06-22T03:57:55;98878.03;;;20.34;75.22
74975;BME280;68459;50.836;19.138;2023-06-22T04:00:59;98876.69;;;20.36;75.01
74975;BME280;68459;50.836;19.138;2023-06-22T04:04:05;98877.47;;;20.42;74.95
74975;BME280;68459;50.836;19.138;2023-06-22T04:07:09;98885.97;;;20.45;75.03
74975;BME280;68459;50.836;19.138;2023-06-22T04:10:13;98878.00;;;20.49;74.77
74975;BME280;68459;50.836;19.138;2023-06-22T04:13:19;98881.50;;;20.54;74.47
74975;BME280;68459;50.836;19.138;2023-06-22T04:16:23;98884.50;;;20.58;74.68
74975;BME280;68459;50.836;19.138;2023-06-22T04:19:28;98890.47;;;20.65;74.27
74975;BME280;68459;50.836;19.138;2023-06-22T04:22:32;98894.84;;;20.71;74.38
74975;BME280;68459;50.836;19.138;2023-06-22T04:25:35;98888.81;;;20.74;73.68
74975;BME280;68459;50.836;19.138;2023-06-22T04:28:39;98899.44;;;20.81;73.96
74975;BME280;68459;50.836;19.138;2023-06-22T04:31:43;98899.97;;;20.83;73.96
74975;BME280;68459;50.836;19.138;2023-06-22T04:34:48;98903.78;;;20.87;73.73
74975;BME280;68459;50.836;19.138;2023-06-22T04:37:56;98904.84;;;20.91;73.41
74975;BME280;68459;50.836;19.138;2023-06-22T04:41:01;98902.63;;;20.98;73.44
74975;BME280;68459;50.836;19.138;2023-06-22T04:44:06;98901.47;;;21.04;73.24
74975;BME280;68459;50.836;19.138;2023-06-22T04:47:10;98903.91;;;21.06;73.20
74975;BME280;68459;50.836;19.138;2023-06-22T04:50:15;98904.72;;;21.11;72.86
74975;BME280;68459;50.836;19.138;2023-06-22T04:53:20;98916.16;;;21.18;72.57
74975;BME280;68459;50.836;19.138;2023-06-22T04:56:24;98923.56;;;21.23;72.16
74975;BME280;68459;50.836;19.138;2023-06-22T04:59:31;98926.56;;;21.26;72.54
74975;BME280;68459;50.836;19.138;2023-06-22T05:02:35;98930.97;;;21.27;71.60
74975;BME280;68459;50.836;19.138;2023-06-22T05:05:41;98932.53;;;21.33;70.75
74975;BME280;68459;50.836;19.138;2023-06-22T05:08:45;98932.78;;;21.37;71.07
74975;BME280;68459;50.836;19.138;2023-06-22T05:11:49;98930.31;;;21.41;70.56
74975;BME280;68459;50.836;19.138;2023-06-22T05:14:53;98928.09;;;21.43;70.29
74975;BME280;68459;50.836;19.138;2023-06-22T05:17:56;98925.28;;;21.48;69.96
74975;BME280;68459;50.836;19.138;2023-06-22T05:21:02;98942.78;;;21.57;69.61
74975;BME280;68459;50.836;19.138;2023-06-22T05:24:06;98940.50;;;21.64;69.09
74975;BME280;68459;50.836;19.138;2023-06-22T05:27:10;98937.13;;;21.72;68.80
74975;BME280;68459;50.836;19.138;2023-06-22T05:30:13;98940.91;;;21.81;68.50
74975;BME280;68459;50.836;19.138;2023-06-22T05:33:20;98943.59;;;21.86;68.14
74975;BME280;68459;50.836;19.138;2023-06-22T05:36:25;98942.44;;;21.92;67.18
74975;BME280;68459;50.836;19.138;2023-06-22T05:39:30;98951.16;;;21.99;67.24
74975;BME280;68459;50.836;19.138;2023-06-22T05:42:34;98953.88;;;22.04;66.67
74975;BME280;68459;50.836;19.138;2023-06-22T05:45:38;98957.41;;;22.10;66.58
74975;BME280;68459;50.836;19.138;2023-06-22T05:48:41;98945.50;;;22.15;66.26
74975;BME280;68459;50.836;19.138;2023-06-22T05:51:46;98949.78;;;22.26;65.88
74975;BME280;68459;50.836;19.138;2023-06-22T05:54:50;98949.44;;;22.32;65.35
74975;BME280;68459;50.836;19.138;2023-06-22T05:57:54;98952.09;;;22.37;65.06
74975;BME280;68459;50.836;19.138;2023-06-22T06:00:58;98955.09;;;22.41;64.88
74975;BME280;68459;50.836;19.138;2023-06-22T06:04:03;98951.19;;;22.47;64.48
74975;BME280;68459;50.836;19.138;2023-06-22T06:07:08;98954.38;;;22.54;64.16
74975;BME280;68459;50.836;19.138;2023-06-22T06:10:12;98957.59;;;22.61;63.89
74975;BME280;68459;50.836;19.138;2023-06-22T06:13:16;98962.00;;;22.62;63.44
74975;BME280;68459;50.836;19.138;2023-06-22T06:16:20;98974.25;;;22.70;62.98
74975;BME280;68459;50.836;19.138;2023-06-22T06:19:24;98966.47;;;22.77;62.80
74975;BME280;68459;50.836;19.138;2023-06-22T06:22:29;98977.94;;;22.84;62.18
74975;BME280;68459;50.836;19.138;2023-06-22T06:25:32;98971.78;;;22.92;62.16
74975;BME280;68459;50.836;19.138;2023-06-22T06:28:36;98969.78;;;22.98;61.61
74975;BME280;68459;50.836;19.138;2023-06-22T06:31:40;98977.66;;;23.04;61.26
74975;BME280;68459;50.836;19.138;2023-06-22T06:34:44;98973.72;;;23.10;61.04
74975;BME280;68459;50.836;19.138;2023-06-22T06:37:50;98982.41;;;23.18;60.53
74975;BME280;68459;50.836;19.138;2023-06-22T06:40:54;98981.22;;;23.24;60.41
74975;BME280;68459;50.836;19.138;2023-06-22T06:43:58;98978.59;;;23.32;59.98
74975;BME280;68459;50.836;19.138;2023-06-22T06:47:03;98975.19;;;23.40;59.71
74975;BME280;68459;50.836;19.138;2023-06-22T06:50:08;98980.59;;;23.45;59.66
74975;BME280;68459;50.836;19.138;2023-06-22T06:53:13;98979.72;;;23.50;59.07
74975;BME280;68459;50.836;19.138;2023-06-22T06:56:17;98966.19;;;23.54;58.89
74975;BME280;68459;50.836;19.138;2023-06-22T06:59:21;98976.00;;;23.60;58.76
74975;BME280;68459;50.836;19.138;2023-06-22T07:02:26;98975.09;;;23.64;58.46
74975;BME280;68459;50.836;19.138;2023-06-22T07:05:31;98978.06;;;23.68;58.64
74975;BME280;68459;50.836;19.138;2023-06-22T07:08:36;98979.09;;;23.72;58.41
74975;BME280;68459;50.836;19.138;2023-06-22T07:11:41;98968.50;;;23.79;58.30
74975;BME280;68459;50.836;19.138;2023-06-22T07:14:45;98956.88;;;23.82;58.06
74975;BME280;68459;50.836;19.138;2023-06-22T07:17:49;98957.00;;;23.91;57.93
74975;BME280;68459;50.836;19.138;2023-06-22T07:20:53;98963.25;;;23.96;57.71
74975;BME280;68459;50.836;19.138;2023-06-22T07:23:58;98968.13;;;23.99;57.92
74975;BME280;68459;50.836;19.138;2023-06-22T07:27:03;98976.69;;;23.98;57.51
74975;BME280;68459;50.836;19.138;2023-06-22T07:30:10;98965.19;;;23.96;57.50
74975;BME280;68459;50.836;19.138;2023-06-22T07:33:14;98969.25;;;23.98;57.60
74975;BME280;68459;50.836;19.138;2023-06-22T07:36:22;98970.88;;;23.99;57.28
74975;BME280;68459;50.836;19.138;2023-06-22T07:39:28;98972.22;;;24.02;56.97
74975;BME280;68459;50.836;19.138;2023-06-22T07:42:32;98974.91;;;24.07;57.24
74975;BME280;68459;50.836;19.138;2023-06-22T07:45:37;98974.19;;;24.15;56.96
74975;BME280;68459;50.836;19.138;2023-06-22T07:48:42;98980.41;;;24.21;56.93
74975;BME280;68459;50.836;19.138;2023-06-22T07:51:46;98982.66;;;24.19;56.78
74975;BME280;68459;50.836;19.138;2023-06-22T07:54:52;98993.91;;;24.22;56.52
74975;BME280;68459;50.836;19.138;2023-06-22T07:57:56;98989.72;;;24.25;56.44
74975;BME280;68459;50.836;19.138;2023-06-22T08:01:00;99002.91;;;24.28;56.60
74975;BME280;68459;50.836;19.138;2023-06-22T08:04:05;98992.31;;;24.35;56.28
74975;BME280;68459;50.836;19.138;2023-06-22T08:07:09;98989.34;;;24.45;56.28
74975;BME280;68459;50.836;19.138;2023-06-22T08:10:15;98992.31;;;24.48;56.16
74975;BME280;68459;50.836;19.138;2023-06-22T08:13:19;98988.75;;;24.48;56.01
74975;BME280;68459;50.836;19.138;2023-06-22T08:16:23;98994.78;;;24.50;55.72
74975;BME280;68459;50.836;19.138;2023-06-22T08:19:26;99005.97;;;24.54;56.01
74975;BME280;68459;50.836;19.138;2023-06-22T08:22:30;99013.56;;;24.62;55.90
74975;BME280;68459;50.836;19.138;2023-06-22T08:25:37;99004.75;;;24.73;55.89
74975;BME280;68459;50.836;19.138;2023-06-22T08:28:41;99008.44;;;24.82;55.61
74975;BME280;68459;50.836;19.138;2023-06-22T08:31:44;99014.78;;;24.97;55.33
74975;BME280;68459;50.836;19.138;2023-06-22T08:34:48;99018.53;;;25.14;55.23
74975;BME280;68459;50.836;19.138;2023-06-22T08:37:52;99014.47;;;25.34;55.16
74975;BME280;68459;50.836;19.138;2023-06-22T08:40:57;99015.50;;;25.38;54.87
74975;BME280;68459;50.836;19.138;2023-06-22T08:44:02;99017.69;;;25.50;54.47
74975;BME280;68459;50.836;19.138;2023-06-22T08:47:07;99010.41;;;25.68;53.95
74975;BME280;68459;50.836;19.138;2023-06-22T08:50:11;99024.78;;;25.78;53.96
74975;BME280;68459;50.836;19.138;2023-06-22T08:53:16;99015.47;;;25.97;53.54
74975;BME280;68459;50.836;19.138;2023-06-22T08:56:21;99024.16;;;26.12;53.41
74975;BME280;68459;50.836;19.138;2023-06-22T08:59:24;99034.47;;;26.20;52.96
74975;BME280;68459;50.836;19.138;2023-06-22T09:02:28;99026.81;;;26.17;53.05
74975;BME280;68459;50.836;19.138;2023-06-22T09:05:34;99031.06;;;26.23;52.31
74975;BME280;68459;50.836;19.138;2023-06-22T09:08:37;99027.09;;;26.38;52.42
74975;BME280;68459;50.836;19.138;2023-06-22T09:11:42;99027.19;;;26.55;52.14
74975;BME280;68459;50.836;19.138;2023-06-22T09:14:46;99021.22;;;26.79;51.69
74975;BME280;68459;50.836;19.138;2023-06-22T09:17:50;99032.88;;;27.07;51.35
74975;BME280;68459;50.836;19.138;2023-06-22T09:20:56;99018.75;;;27.26;50.95
74975;BME280;68459;50.836;19.138;2023-06-22T09:24:00;99023.97;;;27.36;50.71
74975;BME280;68459;50.836;19.138;2023-06-22T09:27:06;99019.72;;;27.30;50.38
74975;BME280;68459;50.836;19.138;2023-06-22T09:30:10;99022.63;;;27.08;50.50
74975;BME280;68459;50.836;19.138;2023-06-22T09:33:14;99014.00;;;27.01;50.91
74975;BME280;68459;50.836;19.138;2023-06-22T09:36:18;99002.44;;;27.07;50.81
74975;BME280;68459;50.836;19.138;2023-06-22T09:39:22;99001.94;;;27.05;50.80
74975;BME280;68459;50.836;19.138;2023-06-22T09:42:27;99001.78;;;27.02;50.68
74975;BME280;68459;50.836;19.138;2023-06-22T09:45:31;98996.72;;;27.04;50.88
74975;BME280;68459;50.836;19.138;2023-06-22T09:48:35;98982.72;;;27.09;50.61
74975;BME280;68459;50.836;19.138;2023-06-22T09:51:42;98987.44;;;27.17;50.41
74975;BME280;68459;50.836;19.138;2023-06-22T09:54:45;98969.38;;;27.11;50.28
74975;BME280;68459;50.836;19.138;2023-06-22T09:57:51;98968.38;;;27.07;50.18
74975;BME280;68459;50.836;19.138;2023-06-22T10:00:55;98977.50;;;27.07;49.72
74975;BME280;68459;50.836;19.138;2023-06-22T10:03:59;98971.16;;;27.07;49.76
74975;BME280;68459;50.836;19.138;2023-06-22T10:07:03;98985.50;;;27.26;49.60
74975;BME280;68459;50.836;19.138;2023-06-22T10:10:08;98979.31;;;27.46;49.15
74975;BME280;68459;50.836;19.138;2023-06-22T10:13:13;98985.34;;;27.57;48.57
74975;BME280;68459;50.836;19.138;2023-06-22T10:16:17;98984.72;;;27.69;48.68
74975;BME280;68459;50.836;19.138;2023-06-22T10:19:21;98978.34;;;27.77;47.84
74975;BME280;68459;50.836;19.138;2023-06-22T10:22:25;98978.31;;;27.85;47.82
74975;BME280;68459;50.836;19.138;2023-06-22T10:25:28;98977.44;;;28.02;47.90
74975;BME280;68459;50.836;19.138;2023-06-22T10:28:34;98980.34;;;28.14;47.25
74975;BME280;68459;50.836;19.138;2023-06-22T10:31:38;98976.09;;;28.17;47.13
74975;BME280;68459;50.836;19.138;2023-06-22T10:34:42;98973.81;;;28.27;46.75
74975;BME280;68459;50.836;19.138;2023-06-22T10:37:46;98982.63;;;28.29;46.52
74975;BME280;68459;50.836;19.138;2023-06-22T10:40:50;98977.00;;;28.38;46.40
74975;BME280;68459;50.836;19.138;2023-06-22T10:43:56;98979.31;;;28.74;46.00
74975;BME280;68459;50.836;19.138;2023-06-22T10:47:00;98970.13;;;29.03;46.19
74975;BME280;68459;50.836;19.138;2023-06-22T10:50:05;98978.03;;;29.22;45.18
74975;BME280;68459;50.836;19.138;2023-06-22T10:53:10;98983.44;;;29.18;45.43
74975;BME280;68459;50.836;19.138;2023-06-22T10:56:14;98976.06;;;29.22;45.33
74975;BME280;68459;50.836;19.138;2023-06-22T10:59:19;98979.72;;;29.35;44.94
74975;BME280;68459;50.836;19.138;2023-06-22T11:02:23;98971.94;;;29.49;44.37
74975;BME280;68459;50.836;19.138;2023-06-22T11:05:28;98977.34;;;29.66;44.58
74975;BME280;68459;50.836;19.138;2023-06-22T11:08:31;98972.13;;;29.65;44.44
74975;BME280;68459;50.836;19.138;2023-06-22T11:11:36;98967.44;;;29.36;44.38
74975;BME280;68459;50.836;19.138;2023-06-22T11:14:42;98954.84;;;29.18;44.47
74975;BME280;68459;50.836;19.138;2023-06-22T11:17:46;98959.78;;;29.33;44.79
74975;BME280;68459;50.836;19.138;2023-06-22T11:20:49;98962.97;;;29.64;44.29
74975;BME280;68459;50.836;19.138;2023-06-22T11:23:55;98950.69;;;29.98;43.56
74975;BME280;68459;50.836;19.138;2023-06-22T11:26:58;98954.69;;;30.22;43.20
74975;BME280;68459;50.836;19.138;2023-06-22T11:30:05;98949.34;;;30.29;42.26
74975;BME280;68459;50.836;19.138;2023-06-22T11:33:09;98942.41;;;30.35;42.46
74975;BME280;68459;50.836;19.138;2023-06-22T11:36:13;98942.78;;;30.58;41.48
74975;BME280;68459;50.836;19.138;2023-06-22T11:39:19;98946.44;;;30.86;41.31
74975;BME280;68459;50.836;19.138;2023-06-22T11:42:40;98947.25;;;31.11;41.21
74975;BME280;68459;50.836;19.138;2023-06-22T11:45:45;98936.94;;;31.39;40.17
74975;BME280;68459;50.836;19.138;2023-06-22T11:48:49;98936.25;;;31.58;40.07
74975;BME280;68459;50.836;19.138;2023-06-22T11:51:53;98933.28;;;31.51;39.50
74975;BME280;68459;50.836;19.138;2023-06-22T11:54:56;98935.53;;;31.61;39.39
74975;BME280;68459;50.836;19.138;2023-06-22T11:58:01;98939.75;;;31.83;39.55
74975;BME280;68459;50.836;19.138;2023-06-22T12:01:08;98941.31;;;31.80;38.54
74975;BME280;68459;50.836;19.138;2023-06-22T12:04:12;98933.00;;;31.68;38.80
74975;BME280;68459;50.836;19.138;2023-06-22T12:07:16;98928.50;;;31.79;38.88
74975;BME280;68459;50.836;19.138;2023-06-22T12:10:20;98927.16;;;31.89;38.52
74975;BME280;68459;50.836;19.138;2023-06-22T12:13:23;98927.34;;;31.96;38.37
74975;BME280;68459;50.836;19.138;2023-06-22T12:16:29;98919.91;;;32.16;38.17
74975;BME280;68459;50.836;19.138;2023-06-22T12:19:32;98918.91;;;31.93;38.61
74975;BME280;68459;50.836;19.138;2023-06-22T12:22:36;98920.16;;;32.11;38.35
74975;BME280;68459;50.836;19.138;2023-06-22T12:25:40;98911.25;;;32.37;38.04
74975;BME280;68459;50.836;19.138;2023-06-22T12:28:44;98903.28;;;32.70;37.50
74975;BME280;68459;50.836;19.138;2023-06-22T12:31:49;98910.66;;;32.63;37.33
74975;BME280;68459;50.836;19.138;2023-06-22T12:34:53;98908.78;;;32.67;37.15
74975;BME280;68459;50.836;19.138;2023-06-22T12:37:57;98908.81;;;33.02;36.90
74975;BME280;68459;50.836;19.138;2023-06-22T12:41:01;98896.84;;;33.40;36.66
74975;BME280;68459;50.836;19.138;2023-06-22T12:44:05;98900.59;;;33.47;36.44
74975;BME280;68459;50.836;19.138;2023-06-22T12:47:10;98901.56;;;33.55;35.95
74975;BME280;68459;50.836;19.138;2023-06-22T12:50:15;98882.38;;;33.18;36.05
74975;BME280;68459;50.836;19.138;2023-06-22T12:53:19;98879.75;;;32.87;36.65
74975;BME280;68459;50.836;19.138;2023-06-22T12:56:25;98876.56;;;33.08;36.12
74975;BME280;68459;50.836;19.138;2023-06-22T12:59:28;98870.53;;;33.44;35.60
74975;BME280;68459;50.836;19.138;2023-06-22T13:02:34;98871.44;;;33.71;35.99
74975;BME280;68459;50.836;19.138;2023-06-22T13:05:38;98865.69;;;34.29;35.03
74975;BME280;68459;50.836;19.138;2023-06-22T13:08:42;98862.34;;;34.99;33.93
74975;BME280;68459;50.836;19.138;2023-06-22T13:12:07;98864.41;;;36.17;32.46
74975;BME280;68459;50.836;19.138;2023-06-22T13:15:11;98866.50;;;38.71;29.58
74975;BME280;68459;50.836;19.138;2023-06-22T13:18:16;98863.06;;;40.51;27.60
74975;BME280;68459;50.836;19.138;2023-06-22T13:21:20;98864.19;;;42.16;25.39
74975;BME280;68459;50.836;19.138;2023-06-22T13:24:26;98881.88;;;44.05;23.42
74975;BME280;68459;50.836;19.138;2023-06-22T13:27:29;98882.72;;;45.79;22.40
74975;BME280;68459;50.836;19.138;2023-06-22T13:30:34;98885.94;;;47.23;20.47
74975;BME280;68459;50.836;19.138;2023-06-22T13:33:39;98879.00;;;48.35;19.97
74975;BME280;68459;50.836;19.138;2023-06-22T13:36:43;98879.00;;;49.45;18.36
74975;BME280;68459;50.836;19.138;2023-06-22T13:39:48;98881.13;;;50.19;17.75
74975;BME280;68459;50.836;19.138;2023-06-22T13:42:52;98876.25;;;50.35;17.48
74975;BME280;68459;50.836;19.138;2023-06-22T13:45:57;98876.63;;;50.27;17.33
74975;BME280;68459;50.836;19.138;2023-06-22T13:49:03;98870.31;;;50.86;17.10
74975;BME280;68459;50.836;19.138;2023-06-22T13:52:07;98871.59;;;51.23;16.44
74975;BME280;68459;50.836;19.138;2023-06-22T13:55:15;98864.63;;;51.45;16.14
74975;BME280;68459;50.836;19.138;2023-06-22T13:58:19;98866.03;;;51.64;15.94
74975;BME280;68459;50.836;19.138;2023-06-22T14:01:23;98871.19;;;51.30;16.01
74975;BME280;68459;50.836;19.138;2023-06-22T14:04:28;98856.28;;;50.64;16.69
74975;BME280;68459;50.836;19.138;2023-06-22T14:07:32;98860.47;;;50.78;16.74
74975;BME280;68459;50.836;19.138;2023-06-22T14:10:36;98850.44;;;50.97;16.35
74975;BME280;68459;50.836;19.138;2023-06-22T14:13:40;98853.72;;;51.19;15.97
74975;BME280;68459;50.836;19.138;2023-06-22T14:16:45;98851.81;;;51.16;15.78
74975;BME280;68459;50.836;19.138;2023-06-22T14:19:51;98854.09;;;50.97;15.50
74975;BME280;68459;50.836;19.138;2023-06-22T14:22:55;98843.22;;;50.39;16.18
74975;BME280;68459;50.836;19.138;2023-06-22T14:26:00;98843.97;;;49.50;16.75
74975;BME280;68459;50.836;19.138;2023-06-22T14:29:03;98830.41;;;49.50;16.67
74975;BME280;68459;50.836;19.138;2023-06-22T14:32:08;98831.94;;;49.18;16.66
74975;BME280;68459;50.836;19.138;2023-06-22T14:35:14;98830.72;;;48.74;17.09
74975;BME280;68459;50.836;19.138;2023-06-22T14:38:17;98831.19;;;49.00;16.45
74975;BME280;68459;50.836;19.138;2023-06-22T14:41:23;98829.31;;;49.48;16.14
74975;BME280;68459;50.836;19.138;2023-06-22T14:44:27;98831.41;;;50.13;15.64
74975;BME280;68459;50.836;19.138;2023-06-22T14:47:31;98837.47;;;50.39;15.38
74975;BME280;68459;50.836;19.138;2023-06-22T14:50:36;98832.19;;;49.81;16.21
74975;BME280;68459;50.836;19.138;2023-06-22T14:53:40;98824.63;;;49.17;15.99
74975;BME280;68459;50.836;19.138;2023-06-22T14:56:45;98811.97;;;47.56;16.81
74975;BME280;68459;50.836;19.138;2023-06-22T14:59:50;98808.94;;;47.91;17.08
74975;BME280;68459;50.836;19.138;2023-06-22T15:02:55;98809.22;;;47.83;16.69
74975;BME280;68459;50.836;19.138;2023-06-22T15:06:01;98803.53;;;46.09;17.76
74975;BME280;68459;50.836;19.138;2023-06-22T15:09:05;98793.88;;;45.94;18.43
74975;BME280;68459;50.836;19.138;2023-06-22T15:12:09;98797.00;;;46.08;18.25
74975;BME280;68459;50.836;19.138;2023-06-22T15:15:14;98791.00;;;46.41;17.53
74975;BME280;68459;50.836;19.138;2023-06-22T15:18:17;98798.09;;;46.71;17.31
74975;BME280;68459;50.836;19.138;2023-06-22T15:21:23;98785.59;;;46.99;17.42
74975;BME280;68459;50.836;19.138;2023-06-22T15:24:27;98788.00;;;47.01;17.06
74975;BME280;68459;50.836;19.138;2023-06-22T15:27:31;98782.53;;;46.94;17.00
74975;BME280;68459;50.836;19.138;2023-06-22T15:30:35;98781.00;;;47.24;17.08
74975;BME280;68459;50.836;19.138;2023-06-22T15:33:38;98775.44;;;47.29;16.84
74975;BME280;68459;50.836;19.138;2023-06-22T15:36:44;98785.72;;;47.79;16.24
74975;BME280;68459;50.836;19.138;2023-06-22T15:39:48;98773.00;;;47.90;16.28
74975;BME280;68459;50.836;19.138;2023-06-22T15:42:53;98775.28;;;48.13;16.10
74975;BME280;68459;50.836;19.138;2023-06-22T15:45:56;98785.50;;;48.41;16.22
74975;BME280;68459;50.836;19.138;2023-06-22T15:49:01;98780.91;;;48.53;15.57
74975;BME280;68459;50.836;19.138;2023-06-22T15:52:06;98781.53;;;48.57;15.31
74975;BME280;68459;50.836;19.138;2023-06-22T15:55:10;98785.81;;;48.71;15.96
74975;BME280;68459;50.836;19.138;2023-06-22T15:58:14;98788.81;;;48.76;15.34
74975;BME280;68459;50.836;19.138;2023-06-22T16:01:19;98778.50;;;48.70;15.84
74975;BME280;68459;50.836;19.138;2023-06-22T16:04:23;98776.28;;;48.65;15.17
74975;BME280;68459;50.836;19.138;2023-06-22T16:07:28;98769.91;;;48.33;15.72